sensor_id;sensor_type;location;lat;lon;timestamp;P1;durP1;ratioP1;P2;durP2;ratioP2
31224;SDS011;17847;31.524;74.366;2023-04-25T00:00:07;28.77;;;11.95;;
31224;SDS011;17847;31.524;74.366;2023-04-25T00:02:40;34.78;;;12.10;;
31224;SDS011;17847;31.524;74.366;2023-04-25T00:05:10;39.00;;;11.93;;
31224;SDS011;17847;31.524;74.366;2023-04-25T00:07:39;30.60;;;12.75;;
31224;SDS011;17847;31.524;74.366;2023-04-25T00:10:11;33.80;;;11.57;;
31224;SDS011;17847;31.524;74.366;2023-04-25T00:12:40;36.45;;;11.68;;
31224;SDS011;17847;31.524;74.366;2023-04-25T00:15:11;40.70;;;12.90;;
31224;SDS011;17847;31.524;74.366;2023-04-25T00:17:40;37.78;;;12.27;;
31224;SDS011;17847;31.524;74.366;2023-04-25T00:20:11;36.60;;;12.25;;
31224;SDS011;17847;31.524;74.366;2023-04-25T00:22:40;33.30;;;11.95;;
31224;SDS011;17847;31.524;74.366;2023-04-25T00:25:09;37.13;;;12.20;;
31224;SDS011;17847;31.524;74.366;2023-04-25T00:27:39;33.85;;;12.68;;
31224;SDS011;17847;31.524;74.366;2023-04-25T00:30:10;35.03;;;12.80;;
31224;SDS011;17847;31.524;74.366;2023-04-25T00:32:40;33.33;;;11.88;;
31224;SDS011;17847;31.524;74.366;2023-04-25T00:35:09;36.15;;;12.80;;
31224;SDS011;17847;31.524;74.366;2023-04-25T00:37:38;32.38;;;12.35;;
31224;SDS011;17847;31.524;74.366;2023-04-25T00:40:08;24.85;;;11.75;;
31224;SDS011;17847;31.524;74.366;2023-04-25T00:42:38;36.22;;;13.15;;
31224;SDS011;17847;31.524;74.366;2023-04-25T00:45:09;30.33;;;12.85;;
31224;SDS011;17847;31.524;74.366;2023-04-25T00:47:46;38.47;;;12.77;;
31224;SDS011;17847;31.524;74.366;2023-04-25T00:50:18;35.00;;;12.57;;
31224;SDS011;17847;31.524;74.366;2023-04-25T00:52:48;39.28;;;12.57;;
31224;SDS011;17847;31.524;74.366;2023-04-25T00:55:18;36.65;;;11.73;;
31224;SDS011;17847;31.524;74.366;2023-04-25T00:57:48;31.13;;;11.65;;
31224;SDS011;17847;31.524;74.366;2023-04-25T01:00:19;29.02;;;12.02;;
31224;SDS011;17847;31.524;74.366;2023-04-25T01:02:49;32.22;;;12.57;;
31224;SDS011;17847;31.524;74.366;2023-04-25T01:05:20;40.85;;;12.10;;
31224;SDS011;17847;31.524;74.366;2023-04-25T01:07:49;30.73;;;11.77;;
31224;SDS011;17847;31.524;74.366;2023-04-25T01:10:18;27.70;;;11.65;;
31224;SDS011;17847;31.524;74.366;2023-04-25T01:12:48;40.53;;;11.60;;
31224;SDS011;17847;31.524;74.366;2023-04-25T01:15:18;32.70;;;11.98;;
31224;SDS011;17847;31.524;74.366;2023-04-25T01:17:47;29.92;;;12.45;;
31224;SDS011;17847;31.524;74.366;2023-04-25T01:20:17;39.70;;;12.13;;
31224;SDS011;17847;31.524;74.366;2023-04-25T01:22:52;29.20;;;11.23;;
31224;SDS011;17847;31.524;74.366;2023-04-25T01:25:23;38.17;;;12.02;;
31224;SDS011;17847;31.524;74.366;2023-04-25T01:27:53;35.40;;;12.48;;
31224;SDS011;17847;31.524;74.366;2023-04-25T01:30:22;30.50;;;12.10;;
31224;SDS011;17847;31.524;74.366;2023-04-25T01:32:52;29.13;;;11.75;;
31224;SDS011;17847;31.524;74.366;2023-04-25T01:35:24;37.72;;;11.45;;
31224;SDS011;17847;31.524;74.366;2023-04-25T01:37:54;33.63;;;13.00;;
31224;SDS011;17847;31.524;74.366;2023-04-25T01:40:23;29.52;;;13.50;;
31224;SDS011;17847;31.524;74.366;2023-04-25T01:42:53;31.05;;;12.50;;
31224;SDS011;17847;31.524;74.366;2023-04-25T01:45:23;31.60;;;12.68;;
31224;SDS011;17847;31.524;74.366;2023-04-25T01:47:53;30.55;;;12.88;;
31224;SDS011;17847;31.524;74.366;2023-04-25T01:50:22;42.22;;;13.38;;
31224;SDS011;17847;31.524;74.366;2023-04-25T01:52:51;40.33;;;14.30;;
31224;SDS011;17847;31.524;74.366;2023-04-25T01:55:22;35.15;;;12.75;;
31224;SDS011;17847;31.524;74.366;2023-04-25T01:58:05;36.03;;;12.85;;
31224;SDS011;17847;31.524;74.366;2023-04-25T02:01:03;29.55;;;13.07;;
31224;SDS011;17847;31.524;74.366;2023-04-25T02:03:40;30.58;;;13.20;;
31224;SDS011;17847;31.524;74.366;2023-04-25T02:06:23;52.40;;;15.32;;
31224;SDS011;17847;31.524;74.366;2023-04-25T02:08:55;40.13;;;14.03;;
31224;SDS011;17847;31.524;74.366;2023-04-25T02:11:25;44.05;;;14.98;;
31224;SDS011;17847;31.524;74.366;2023-04-25T02:14:24;30.80;;;13.95;;
31224;SDS011;17847;31.524;74.366;2023-04-25T02:17:00;37.92;;;16.23;;
31224;SDS011;17847;31.524;74.366;2023-04-25T02:19:31;41.95;;;14.48;;
31224;SDS011;17847;31.524;74.366;2023-04-25T02:22:00;36.85;;;14.35;;
31224;SDS011;17847;31.524;74.366;2023-04-25T02:24:29;39.78;;;14.77;;
31224;SDS011;17847;31.524;74.366;2023-04-25T02:27:00;32.13;;;13.40;;
31224;SDS011;17847;31.524;74.366;2023-04-25T02:29:29;43.72;;;14.52;;
31224;SDS011;17847;31.524;74.366;2023-04-25T02:31:59;30.92;;;14.48;;
31224;SDS011;17847;31.524;74.366;2023-04-25T02:34:28;31.00;;;14.90;;
31224;SDS011;17847;31.524;74.366;2023-04-25T02:37:10;38.97;;;14.57;;
31224;SDS011;17847;31.524;74.366;2023-04-25T02:40:37;27.10;;;13.70;;
31224;SDS011;17847;31.524;74.366;2023-04-25T02:44:04;31.77;;;13.90;;
31224;SDS011;17847;31.524;74.366;2023-04-25T02:46:37;35.53;;;15.93;;
31224;SDS011;17847;31.524;74.366;2023-04-25T02:49:16;36.50;;;15.13;;
31224;SDS011;17847;31.524;74.366;2023-04-25T02:51:45;33.72;;;16.08;;
31224;SDS011;17847;31.524;74.366;2023-04-25T02:54:16;40.75;;;15.00;;
31224;SDS011;17847;31.524;74.366;2023-04-25T02:56:47;35.38;;;14.88;;
31224;SDS011;17847;31.524;74.366;2023-04-25T02:59:23;37.05;;;14.98;;
31224;SDS011;17847;31.524;74.366;2023-04-25T03:01:52;44.38;;;15.20;;
31224;SDS011;17847;31.524;74.366;2023-04-25T03:04:23;31.42;;;14.88;;
31224;SDS011;17847;31.524;74.366;2023-04-25T03:06:53;40.72;;;15.90;;
31224;SDS011;17847;31.524;74.366;2023-04-25T03:09:22;42.67;;;16.02;;
31224;SDS011;17847;31.524;74.366;2023-04-25T03:11:52;34.72;;;15.93;;
31224;SDS011;17847;31.524;74.366;2023-04-25T03:14:22;40.63;;;16.95;;
31224;SDS011;17847;31.524;74.366;2023-04-25T03:16:52;44.88;;;15.88;;
31224;SDS011;17847;31.524;74.366;2023-04-25T03:19:21;54.38;;;20.65;;
31224;SDS011;17847;31.524;74.366;2023-04-25T03:21:51;55.50;;;28.08;;
31224;SDS011;17847;31.524;74.366;2023-04-25T03:24:22;62.03;;;31.92;;
31224;SDS011;17847;31.524;74.366;2023-04-25T03:26:51;53.28;;;26.10;;
31224;SDS011;17847;31.524;74.366;2023-04-25T03:29:30;36.80;;;20.23;;
31224;SDS011;17847;31.524;74.366;2023-04-25T03:32:03;42.72;;;18.63;;
31224;SDS011;17847;31.524;74.366;2023-04-25T03:34:32;37.83;;;16.92;;
31224;SDS011;17847;31.524;74.366;2023-04-25T03:37:01;38.20;;;16.20;;
31224;SDS011;17847;31.524;74.366;2023-04-25T03:39:35;34.08;;;16.13;;
31224;SDS011;17847;31.524;74.366;2023-04-25T03:42:06;44.30;;;15.82;;
31224;SDS011;17847;31.524;74.366;2023-04-25T03:44:36;40.17;;;15.15;;
31224;SDS011;17847;31.524;74.366;2023-04-25T03:47:06;34.95;;;17.00;;
31224;SDS011;17847;31.524;74.366;2023-04-25T03:49:35;40.95;;;15.05;;
31224;SDS011;17847;31.524;74.366;2023-04-25T03:52:05;47.85;;;16.88;;
31224;SDS011;17847;31.524;74.366;2023-04-25T03:54:38;37.50;;;16.63;;
31224;SDS011;17847;31.524;74.366;2023-04-25T03:57:11;37.00;;;16.13;;
31224;SDS011;17847;31.524;74.366;2023-04-25T03:59:42;36.95;;;16.13;;
31224;SDS011;17847;31.524;74.366;2023-04-25T04:02:15;41.40;;;16.10;;
31224;SDS011;17847;31.524;74.366;2023-04-25T04:04:46;32.42;;;15.27;;
31224;SDS011;17847;31.524;74.366;2023-04-25T04:07:15;46.38;;;17.52;;
31224;SDS011;17847;31.524;74.366;2023-04-25T04:09:49;37.78;;;15.70;;
31224;SDS011;17847;31.524;74.366;2023-04-25T04:12:24;39.72;;;14.48;;
31224;SDS011;17847;31.524;74.366;2023-04-25T04:14:54;47.92;;;15.35;;
31224;SDS011;17847;31.524;74.366;2023-04-25T04:17:24;29.67;;;14.43;;
31224;SDS011;17847;31.524;74.366;2023-04-25T04:19:53;82.03;;;17.08;;
31224;SDS011;17847;31.524;74.366;2023-04-25T04:22:23;31.92;;;15.65;;
31224;SDS011;17847;31.524;74.366;2023-04-25T04:24:57;41.20;;;16.42;;
31224;SDS011;17847;31.524;74.366;2023-04-25T04:27:45;34.33;;;15.20;;
31224;SDS011;17847;31.524;74.366;2023-04-25T04:30:25;38.78;;;15.02;;
31224;SDS011;17847;31.524;74.366;2023-04-25T04:33:01;27.73;;;14.30;;
31224;SDS011;17847;31.524;74.366;2023-04-25T04:35:31;30.60;;;13.88;;
31224;SDS011;17847;31.524;74.366;2023-04-25T04:38:01;35.42;;;13.60;;
31224;SDS011;17847;31.524;74.366;2023-04-25T04:40:33;39.85;;;13.75;;
31224;SDS011;17847;31.524;74.366;2023-04-25T04:43:20;35.38;;;13.55;;
31224;SDS011;17847;31.524;74.366;2023-04-25T04:46:09;25.58;;;13.98;;
31224;SDS011;17847;31.524;74.366;2023-04-25T04:49:11;33.83;;;12.48;;
31224;SDS011;17847;31.524;74.366;2023-04-25T04:52:00;41.22;;;12.55;;
31224;SDS011;17847;31.524;74.366;2023-04-25T04:54:49;42.45;;;11.88;;
31224;SDS011;17847;31.524;74.366;2023-04-25T04:57:33;30.98;;;12.02;;
31224;SDS011;17847;31.524;74.366;2023-04-25T05:00:30;27.27;;;11.30;;
31224;SDS011;17847;31.524;74.366;2023-04-25T05:03:36;32.40;;;13.57;;
31224;SDS011;17847;31.524;74.366;2023-04-25T05:06:26;25.60;;;11.48;;
31224;SDS011;17847;31.524;74.366;2023-04-25T05:09:15;26.83;;;12.18;;
31224;SDS011;17847;31.524;74.366;2023-04-25T05:12:23;37.72;;;12.30;;
31224;SDS011;17847;31.524;74.366;2023-04-25T05:15:06;34.15;;;11.98;;
31224;SDS011;17847;31.524;74.366;2023-04-25T05:17:41;31.63;;;11.82;;
31224;SDS011;17847;31.524;74.366;2023-04-25T05:20:22;33.85;;;11.07;;
31224;SDS011;17847;31.524;74.366;2023-04-25T05:23:15;35.13;;;12.30;;
31224;SDS011;17847;31.524;74.366;2023-04-25T05:26:19;34.25;;;13.50;;
31224;SDS011;17847;31.524;74.366;2023-04-25T05:29:12;45.15;;;12.55;;
31224;SDS011;17847;31.524;74.366;2023-04-25T05:31:59;31.73;;;12.50;;
31224;SDS011;17847;31.524;74.366;2023-04-25T05:34:29;27.38;;;12.10;;
31224;SDS011;17847;31.524;74.366;2023-04-25T05:37:01;26.55;;;11.48;;
31224;SDS011;17847;31.524;74.366;2023-04-25T05:39:34;27.90;;;12.07;;
31224;SDS011;17847;31.524;74.366;2023-04-25T05:42:13;23.40;;;10.88;;
31224;SDS011;17847;31.524;74.366;2023-04-25T05:45:02;30.73;;;11.60;;
31224;SDS011;17847;31.524;74.366;2023-04-25T05:47:53;23.98;;;11.13;;
31224;SDS011;17847;31.524;74.366;2023-04-25T05:50:38;36.50;;;11.73;;
31224;SDS011;17847;31.524;74.366;2023-04-25T05:53:38;30.25;;;10.25;;
31224;SDS011;17847;31.524;74.366;2023-04-25T05:56:07;25.05;;;10.55;;
31224;SDS011;17847;31.524;74.366;2023-04-25T05:58:37;26.85;;;10.65;;
31224;SDS011;17847;31.524;74.366;2023-04-25T06:01:07;33.92;;;9.90;;
31224;SDS011;17847;31.524;74.366;2023-04-25T06:03:38;21.17;;;10.57;;
31224;SDS011;17847;31.524;74.366;2023-04-25T06:06:08;26.15;;;10.70;;
31224;SDS011;17847;31.524;74.366;2023-04-25T06:08:38;20.70;;;9.32;;
31224;SDS011;17847;31.524;74.366;2023-04-25T06:11:11;24.33;;;9.53;;
31224;SDS011;17847;31.524;74.366;2023-04-25T06:13:40;26.08;;;9.15;;
31224;SDS011;17847;31.524;74.366;2023-04-25T06:16:11;21.33;;;9.25;;
31224;SDS011;17847;31.524;74.366;2023-04-25T06:18:41;30.00;;;8.98;;
31224;SDS011;17847;31.524;74.366;2023-04-25T06:21:10;27.13;;;9.45;;
31224;SDS011;17847;31.524;74.366;2023-04-25T06:23:40;28.75;;;9.85;;
31224;SDS011;17847;31.524;74.366;2023-04-25T06:26:12;19.25;;;10.20;;
31224;SDS011;17847;31.524;74.366;2023-04-25T06:28:44;14.98;;;8.13;;
31224;SDS011;17847;31.524;74.366;2023-04-25T06:31:14;20.63;;;8.32;;
31224;SDS011;17847;31.524;74.366;2023-04-25T06:33:45;25.65;;;8.63;;
31224;SDS011;17847;31.524;74.366;2023-04-25T06:36:17;18.30;;;7.43;;
31224;SDS011;17847;31.524;74.366;2023-04-25T06:38:51;23.23;;;8.27;;
31224;SDS011;17847;31.524;74.366;2023-04-25T06:41:23;17.05;;;7.68;;
31224;SDS011;17847;31.524;74.366;2023-04-25T06:43:57;21.52;;;9.10;;
31224;SDS011;17847;31.524;74.366;2023-04-25T06:46:31;21.88;;;8.27;;
31224;SDS011;17847;31.524;74.366;2023-04-25T06:49:01;26.63;;;8.38;;
31224;SDS011;17847;31.524;74.366;2023-04-25T06:51:30;28.08;;;9.07;;
31224;SDS011;17847;31.524;74.366;2023-04-25T06:53:59;19.58;;;7.80;;
31224;SDS011;17847;31.524;74.366;2023-04-25T06:56:36;21.95;;;7.55;;
31224;SDS011;17847;31.524;74.366;2023-04-25T06:59:11;17.20;;;7.78;;
31224;SDS011;17847;31.524;74.366;2023-04-25T07:01:42;19.52;;;6.93;;
31224;SDS011;17847;31.524;74.366;2023-04-25T07:04:18;19.35;;;7.18;;
31224;SDS011;17847;31.524;74.366;2023-04-25T07:06:52;18.13;;;6.32;;
31224;SDS011;17847;31.524;74.366;2023-04-25T07:09:36;20.23;;;7.13;;
31224;SDS011;17847;31.524;74.366;2023-04-25T07:12:06;21.98;;;6.30;;
31224;SDS011;17847;31.524;74.366;2023-04-25T07:14:35;14.25;;;6.43;;
31224;SDS011;17847;31.524;74.366;2023-04-25T07:17:04;20.13;;;6.35;;
31224;SDS011;17847;31.524;74.366;2023-04-25T07:19:35;19.88;;;6.10;;
31224;SDS011;17847;31.524;74.366;2023-04-25T07:22:07;13.27;;;5.72;;
31224;SDS011;17847;31.524;74.366;2023-04-25T07:24:40;19.10;;;6.13;;
31224;SDS011;17847;31.524;74.366;2023-04-25T07:27:12;13.30;;;5.72;;
31224;SDS011;17847;31.524;74.366;2023-04-25T07:30:01;15.60;;;6.00;;
31224;SDS011;17847;31.524;74.366;2023-04-25T07:32:32;21.83;;;5.65;;
31224;SDS011;17847;31.524;74.366;2023-04-25T07:35:01;24.23;;;6.22;;
31224;SDS011;17847;31.524;74.366;2023-04-25T07:37:31;21.85;;;5.90;;
31224;SDS011;17847;31.524;74.366;2023-04-25T07:40:14;15.25;;;5.95;;
31224;SDS011;17847;31.524;74.366;2023-04-25T07:42:49;25.40;;;6.05;;
31224;SDS011;17847;31.524;74.366;2023-04-25T07:45:26;14.57;;;5.85;;
31224;SDS011;17847;31.524;74.366;2023-04-25T07:47:55;20.20;;;5.47;;
31224;SDS011;17847;31.524;74.366;2023-04-25T07:50:26;16.88;;;5.38;;
31224;SDS011;17847;31.524;74.366;2023-04-25T07:52:57;14.18;;;5.25;;
31224;SDS011;17847;31.524;74.366;2023-04-25T07:55:40;17.50;;;5.25;;
31224;SDS011;17847;31.524;74.366;2023-04-25T07:58:17;11.27;;;5.15;;
31224;SDS011;17847;31.524;74.366;2023-04-25T08:00:54;11.05;;;5.65;;
31224;SDS011;17847;31.524;74.366;2023-04-25T08:03:40;19.50;;;5.35;;
31224;SDS011;17847;31.524;74.366;2023-04-25T08:06:19;13.35;;;5.28;;
31224;SDS011;17847;31.524;74.366;2023-04-25T08:09:00;9.88;;;5.18;;
31224;SDS011;17847;31.524;74.366;2023-04-25T08:11:36;15.02;;;5.00;;
31224;SDS011;17847;31.524;74.366;2023-04-25T08:14:08;17.98;;;5.88;;
31224;SDS011;17847;31.524;74.366;2023-04-25T08:16:39;11.80;;;5.10;;
31224;SDS011;17847;31.524;74.366;2023-04-25T08:19:09;14.85;;;4.60;;
31224;SDS011;17847;31.524;74.366;2023-04-25T08:21:39;13.57;;;4.85;;
31224;SDS011;17847;31.524;74.366;2023-04-25T08:24:13;11.60;;;4.57;;
31224;SDS011;17847;31.524;74.366;2023-04-25T08:26:43;17.90;;;5.20;;
31224;SDS011;17847;31.524;74.366;2023-04-25T08:29:15;13.20;;;4.88;;
31224;SDS011;17847;31.524;74.366;2023-04-25T08:31:45;18.40;;;5.75;;
31224;SDS011;17847;31.524;74.366;2023-04-25T08:34:15;11.90;;;4.82;;
31224;SDS011;17847;31.524;74.366;2023-04-25T08:36:47;11.85;;;4.75;;
31224;SDS011;17847;31.524;74.366;2023-04-25T08:39:22;16.50;;;5.38;;
31224;SDS011;17847;31.524;74.366;2023-04-25T08:42:19;10.18;;;4.30;;
31224;SDS011;17847;31.524;74.366;2023-04-25T08:44:50;10.10;;;5.18;;
31224;SDS011;17847;31.524;74.366;2023-04-25T08:47:26;21.13;;;5.40;;
31224;SDS011;17847;31.524;74.366;2023-04-25T08:50:00;15.13;;;4.97;;
31224;SDS011;17847;31.524;74.366;2023-04-25T08:52:41;15.02;;;4.95;;
31224;SDS011;17847;31.524;74.366;2023-04-25T08:55:14;11.18;;;5.30;;
31224;SDS011;17847;31.524;74.366;2023-04-25T08:57:45;12.70;;;4.95;;
31224;SDS011;17847;31.524;74.366;2023-04-25T09:00:16;7.78;;;4.60;;
31224;SDS011;17847;31.524;74.366;2023-04-25T09:02:47;8.80;;;4.38;;
31224;SDS011;17847;31.524;74.366;2023-04-25T09:05:18;21.38;;;5.25;;
31224;SDS011;17847;31.524;74.366;2023-04-25T09:07:51;8.27;;;4.60;;
31224;SDS011;17847;31.524;74.366;2023-04-25T09:10:21;16.58;;;5.20;;
31224;SDS011;17847;31.524;74.366;2023-04-25T09:13:02;9.68;;;4.53;;
31224;SDS011;17847;31.524;74.366;2023-04-25T09:15:56;16.05;;;4.63;;
31224;SDS011;17847;31.524;74.366;2023-04-25T09:18:47;13.93;;;4.35;;
31224;SDS011;17847;31.524;74.366;2023-04-25T09:21:21;16.08;;;4.88;;
31224;SDS011;17847;31.524;74.366;2023-04-25T09:23:53;13.52;;;5.05;;
31224;SDS011;17847;31.524;74.366;2023-04-25T09:26:23;12.93;;;4.93;;
31224;SDS011;17847;31.524;74.366;2023-04-25T09:29:06;10.75;;;4.45;;
31224;SDS011;17847;31.524;74.366;2023-04-25T09:31:40;10.90;;;4.22;;
31224;SDS011;17847;31.524;74.366;2023-04-25T09:34:11;9.63;;;4.20;;
31224;SDS011;17847;31.524;74.366;2023-04-25T09:36:54;9.27;;;4.32;;
31224;SDS011;17847;31.524;74.366;2023-04-25T09:39:56;17.33;;;5.50;;
31224;SDS011;17847;31.524;74.366;2023-04-25T09:42:47;16.27;;;4.53;;
31224;SDS011;17847;31.524;74.366;2023-04-25T09:45:17;7.50;;;4.63;;
31224;SDS011;17847;31.524;74.366;2023-04-25T09:48:22;6.43;;;4.20;;
31224;SDS011;17847;31.524;74.366;2023-04-25T09:51:10;12.20;;;4.65;;
31224;SDS011;17847;31.524;74.366;2023-04-25T09:53:46;16.05;;;4.90;;
31224;SDS011;17847;31.524;74.366;2023-04-25T09:56:40;17.05;;;4.60;;
31224;SDS011;17847;31.524;74.366;2023-04-25T09:59:10;14.45;;;4.45;;
31224;SDS011;17847;31.524;74.366;2023-04-25T10:01:42;10.02;;;4.72;;
31224;SDS011;17847;31.524;74.366;2023-04-25T10:04:25;13.40;;;4.30;;
31224;SDS011;17847;31.524;74.366;2023-04-25T10:07:07;9.10;;;4.45;;
31224;SDS011;17847;31.524;74.366;2023-04-25T10:09:38;15.50;;;4.55;;
31224;SDS011;17847;31.524;74.366;2023-04-25T10:12:09;19.15;;;4.85;;
31224;SDS011;17847;31.524;74.366;2023-04-25T10:14:39;12.80;;;5.00;;
31224;SDS011;17847;31.524;74.366;2023-04-25T10:17:10;18.95;;;4.93;;
31224;SDS011;17847;31.524;74.366;2023-04-25T10:19:40;13.35;;;5.03;;
31224;SDS011;17847;31.524;74.366;2023-04-25T10:22:13;12.18;;;4.95;;
31224;SDS011;17847;31.524;74.366;2023-04-25T10:24:51;12.98;;;5.18;;
31224;SDS011;17847;31.524;74.366;2023-04-25T10:27:22;12.82;;;4.90;;
31224;SDS011;17847;31.524;74.366;2023-04-25T10:30:00;11.73;;;4.60;;
31224;SDS011;17847;31.524;74.366;2023-04-25T10:32:42;13.95;;;4.97;;
31224;SDS011;17847;31.524;74.366;2023-04-25T10:35:23;16.77;;;6.07;;
31224;SDS011;17847;31.524;74.366;2023-04-25T10:37:59;16.15;;;4.95;;
31224;SDS011;17847;31.524;74.366;2023-04-25T10:40:30;11.40;;;4.70;;
31224;SDS011;17847;31.524;74.366;2023-04-25T10:46:01;19.38;;;5.72;;
31224;SDS011;17847;31.524;74.366;2023-04-25T10:48:45;13.13;;;5.40;;
31224;SDS011;17847;31.524;74.366;2023-04-25T10:51:20;13.82;;;4.90;;
31224;SDS011;17847;31.524;74.366;2023-04-25T10:54:20;16.48;;;4.78;;
31224;SDS011;17847;31.524;74.366;2023-04-25T10:56:54;7.72;;;4.47;;
31224;SDS011;17847;31.524;74.366;2023-04-25T10:59:27;10.60;;;4.75;;
31224;SDS011;17847;31.524;74.366;2023-04-25T11:01:58;10.55;;;4.55;;
31224;SDS011;17847;31.524;74.366;2023-04-25T11:04:30;16.25;;;4.60;;
31224;SDS011;17847;31.524;74.366;2023-04-25T11:09:56;15.68;;;5.07;;
31224;SDS011;17847;31.524;74.366;2023-04-25T11:12:26;12.80;;;4.45;;
31224;SDS011;17847;31.524;74.366;2023-04-25T11:15:03;12.15;;;5.20;;
31224;SDS011;17847;31.524;74.366;2023-04-25T11:17:34;13.82;;;4.60;;
31224;SDS011;17847;31.524;74.366;2023-04-25T11:20:04;10.82;;;5.18;;
31224;SDS011;17847;31.524;74.366;2023-04-25T11:22:40;12.57;;;5.20;;
31224;SDS011;17847;31.524;74.366;2023-04-25T11:25:11;16.63;;;5.20;;
31224;SDS011;17847;31.524;74.366;2023-04-25T11:27:52;10.98;;;4.65;;
31224;SDS011;17847;31.524;74.366;2023-04-25T11:30:23;29.75;;;5.68;;
31224;SDS011;17847;31.524;74.366;2023-04-25T11:32:53;15.45;;;5.25;;
31224;SDS011;17847;31.524;74.366;2023-04-25T11:35:51;10.30;;;5.00;;
31224;SDS011;17847;31.524;74.366;2023-04-25T11:38:24;10.63;;;4.80;;
31224;SDS011;17847;31.524;74.366;2023-04-25T11:43:28;18.98;;;5.35;;
31224;SDS011;17847;31.524;74.366;2023-04-25T11:46:07;13.80;;;4.70;;
31224;SDS011;17847;31.524;74.366;2023-04-25T11:48:38;11.93;;;4.93;;
31224;SDS011;17847;31.524;74.366;2023-04-25T11:51:08;15.02;;;4.78;;
31224;SDS011;17847;31.524;74.366;2023-04-25T11:53:41;12.35;;;5.28;;
31224;SDS011;17847;31.524;74.366;2023-04-25T11:56:13;17.02;;;5.07;;
31224;SDS011;17847;31.524;74.366;2023-04-25T11:59:02;11.90;;;4.95;;
31224;SDS011;17847;31.524;74.366;2023-04-25T12:01:34;14.70;;;5.15;;
31224;SDS011;17847;31.524;74.366;2023-04-25T12:04:15;14.73;;;4.60;;
31224;SDS011;17847;31.524;74.366;2023-04-25T12:06:48;10.85;;;4.78;;
31224;SDS011;17847;31.524;74.366;2023-04-25T12:09:31;10.13;;;4.65;;
31224;SDS011;17847;31.524;74.366;2023-04-25T12:12:02;11.43;;;5.22;;
31224;SDS011;17847;31.524;74.366;2023-04-25T12:14:32;13.68;;;4.55;;
31224;SDS011;17847;31.524;74.366;2023-04-25T12:17:03;15.93;;;4.75;;
31224;SDS011;17847;31.524;74.366;2023-04-25T12:19:36;16.52;;;4.50;;
31224;SDS011;17847;31.524;74.366;2023-04-25T12:22:22;18.70;;;5.50;;
31224;SDS011;17847;31.524;74.366;2023-04-25T12:24:52;13.13;;;5.15;;
31224;SDS011;17847;31.524;74.366;2023-04-25T12:27:22;21.13;;;5.13;;
31224;SDS011;17847;31.524;74.366;2023-04-25T12:30:26;17.73;;;5.10;;
31224;SDS011;17847;31.524;74.366;2023-04-25T12:32:55;15.10;;;5.38;;
31224;SDS011;17847;31.524;74.366;2023-04-25T12:35:24;17.38;;;4.90;;
31224;SDS011;17847;31.524;74.366;2023-04-25T12:37:54;14.75;;;5.15;;
31224;SDS011;17847;31.524;74.366;2023-04-25T12:40:23;16.77;;;5.60;;
31224;SDS011;17847;31.524;74.366;2023-04-25T12:42:52;11.90;;;5.80;;
31224;SDS011;17847;31.524;74.366;2023-04-25T12:45:21;10.38;;;4.65;;
31224;SDS011;17847;31.524;74.366;2023-04-25T12:47:52;12.23;;;4.82;;
31224;SDS011;17847;31.524;74.366;2023-04-25T12:50:21;15.13;;;5.40;;
31224;SDS011;17847;31.524;74.366;2023-04-25T12:52:51;15.07;;;5.70;;
31224;SDS011;17847;31.524;74.366;2023-04-25T12:55:20;15.38;;;5.40;;
31224;SDS011;17847;31.524;74.366;2023-04-25T12:57:49;12.63;;;4.80;;
31224;SDS011;17847;31.524;74.366;2023-04-25T13:00:20;8.75;;;4.60;;
31224;SDS011;17847;31.524;74.366;2023-04-25T13:02:49;9.85;;;4.70;;
31224;SDS011;17847;31.524;74.366;2023-04-25T13:05:19;10.77;;;4.43;;
31224;SDS011;17847;31.524;74.366;2023-04-25T13:08:46;18.25;;;4.93;;
31224;SDS011;17847;31.524;74.366;2023-04-25T13:11:16;10.80;;;5.05;;
31224;SDS011;17847;31.524;74.366;2023-04-25T13:13:55;14.23;;;5.15;;
31224;SDS011;17847;31.524;74.366;2023-04-25T13:16:25;13.23;;;4.70;;
31224;SDS011;17847;31.524;74.366;2023-04-25T13:18:56;15.95;;;5.18;;
31224;SDS011;17847;31.524;74.366;2023-04-25T13:21:25;14.88;;;5.13;;
31224;SDS011;17847;31.524;74.366;2023-04-25T13:23:55;15.75;;;5.28;;
31224;SDS011;17847;31.524;74.366;2023-04-25T13:26:24;14.48;;;5.53;;
31224;SDS011;17847;31.524;74.366;2023-04-25T13:28:54;12.40;;;5.03;;
31224;SDS011;17847;31.524;74.366;2023-04-25T13:31:23;15.52;;;5.60;;
31224;SDS011;17847;31.524;74.366;2023-04-25T13:33:53;19.10;;;5.40;;
31224;SDS011;17847;31.524;74.366;2023-04-25T13:36:22;15.38;;;6.10;;
31224;SDS011;17847;31.524;74.366;2023-04-25T13:38:52;18.42;;;7.13;;
31224;SDS011;17847;31.524;74.366;2023-04-25T13:41:22;15.07;;;5.80;;
31224;SDS011;17847;31.524;74.366;2023-04-25T13:43:52;9.55;;;5.40;;
31224;SDS011;17847;31.524;74.366;2023-04-25T13:46:21;14.18;;;5.93;;
31224;SDS011;17847;31.524;74.366;2023-04-25T13:49:12;12.25;;;5.88;;
31224;SDS011;17847;31.524;74.366;2023-04-25T13:51:41;10.48;;;5.45;;
31224;SDS011;17847;31.524;74.366;2023-04-25T13:54:10;16.65;;;6.28;;
31224;SDS011;17847;31.524;74.366;2023-04-25T13:56:40;15.88;;;6.18;;
31224;SDS011;17847;31.524;74.366;2023-04-25T13:59:10;23.80;;;9.27;;
31224;SDS011;17847;31.524;74.366;2023-04-25T14:01:39;31.85;;;14.30;;
31224;SDS011;17847;31.524;74.366;2023-04-25T14:04:10;39.63;;;18.67;;
31224;SDS011;17847;31.524;74.366;2023-04-25T14:06:39;42.13;;;21.90;;
31224;SDS011;17847;31.524;74.366;2023-04-25T14:09:10;44.92;;;24.67;;
31224;SDS011;17847;31.524;74.366;2023-04-25T14:11:41;48.53;;;22.80;;
31224;SDS011;17847;31.524;74.366;2023-04-25T14:14:10;40.47;;;20.70;;
31224;SDS011;17847;31.524;74.366;2023-04-25T14:16:41;37.40;;;17.65;;
31224;SDS011;17847;31.524;74.366;2023-04-25T14:19:11;40.72;;;18.17;;
31224;SDS011;17847;31.524;74.366;2023-04-25T14:21:41;34.25;;;16.45;;
31224;SDS011;17847;31.524;74.366;2023-04-25T14:24:11;29.90;;;14.18;;
31224;SDS011;17847;31.524;74.366;2023-04-25T14:26:40;31.08;;;13.32;;
31224;SDS011;17847;31.524;74.366;2023-04-25T14:29:10;27.10;;;12.60;;
31224;SDS011;17847;31.524;74.366;2023-04-25T14:31:40;32.78;;;12.18;;
31224;SDS011;17847;31.524;74.366;2023-04-25T14:34:09;35.13;;;12.43;;
31224;SDS011;17847;31.524;74.366;2023-04-25T14:36:40;34.83;;;13.18;;
31224;SDS011;17847;31.524;74.366;2023-04-25T14:39:12;27.45;;;11.52;;
31224;SDS011;17847;31.524;74.366;2023-04-25T14:41:43;28.77;;;11.90;;
31224;SDS011;17847;31.524;74.366;2023-04-25T14:44:14;27.13;;;11.07;;
31224;SDS011;17847;31.524;74.366;2023-04-25T14:46:44;22.38;;;9.95;;
31224;SDS011;17847;31.524;74.366;2023-04-25T14:49:14;23.38;;;11.27;;
31224;SDS011;17847;31.524;74.366;2023-04-25T14:51:43;22.85;;;10.75;;
31224;SDS011;17847;31.524;74.366;2023-04-25T14:54:13;25.15;;;9.93;;
31224;SDS011;17847;31.524;74.366;2023-04-25T14:56:42;20.20;;;10.55;;
31224;SDS011;17847;31.524;74.366;2023-04-25T14:59:12;27.95;;;10.73;;
31224;SDS011;17847;31.524;74.366;2023-04-25T15:01:41;22.98;;;11.50;;
31224;SDS011;17847;31.524;74.366;2023-04-25T15:04:10;22.23;;;11.02;;
31224;SDS011;17847;31.524;74.366;2023-04-25T15:06:42;27.48;;;11.82;;